createdAt,value
2024-05-09T00:01:02.622Z,102143.46
2024-05-09T00:03:50.055Z,102148.80
2024-05-09T00:06:24.851Z,102151.42
2024-05-09T00:08:56.982Z,102153.75
2024-05-09T00:11:31.463Z,102159.02
2024-05-09T00:14:06.603Z,102157.80
2024-05-09T00:16:42.008Z,102154.39
2024-05-09T00:19:14.952Z,102149.81
2024-05-09T00:21:48.706Z,102150.85
2024-05-09T00:24:24.610Z,102150.07
2024-05-09T00:26:56.502Z,102148.55
2024-05-09T00:29:29.931Z,102153.45
2024-05-09T00:32:03.194Z,102158.19
2024-05-09T00:34:36.344Z,102155.74
2024-05-09T00:37:09.263Z,102158.91
2024-05-09T00:39:43.237Z,102157.19
2024-05-09T00:42:15.114Z,102156.47
2024-05-09T00:44:48.552Z,102158.59
2024-05-09T00:47:22.368Z,102159.06
2024-05-09T00:49:56.929Z,102158.56
2024-05-09T00:52:31.398Z,102161.00
2024-05-09T00:55:04.018Z,102159.81
2024-05-09T00:57:37.414Z,102163.69
2024-05-09T01:00:22.653Z,102158.89
2024-05-09T01:03:06.095Z,102158.55
2024-05-09T01:05:42.533Z,102156.39
2024-05-09T01:08:16.367Z,102159.45
2024-05-09T01:10:49.806Z,102156.23
2024-05-09T01:13:23.349Z,102154.97
2024-05-09T01:15:58.172Z,102153.77
2024-05-09T01:18:31.518Z,102157.80
2024-05-09T01:21:09.683Z,102154.67
2024-05-09T01:23:42.675Z,102150.66
2024-05-09T01:26:16.124Z,102151.00
2024-05-09T01:28:49.693Z,102154.64
2024-05-09T01:31:23.752Z,102150.73
2024-05-09T01:33:56.707Z,102149.56
2024-05-09T01:36:28.727Z,102147.80
2024-05-09T01:39:01.537Z,102147.86
2024-05-09T01:41:34.253Z,102144.98
2024-05-09T01:44:07.453Z,102145.10
2024-05-09T01:46:40.678Z,102151.23
2024-05-09T01:49:14.295Z,102153.36
2024-05-09T01:51:47.335Z,102158.69
2024-05-09T01:54:20.754Z,102163.20
2024-05-09T01:56:52.665Z,102169.36
2024-05-09T01:59:28.327Z,102169.89
2024-05-09T02:02:01.735Z,102168.18
2024-05-09T02:04:36.934Z,102170.57
2024-05-09T02:07:13.120Z,102171.45
2024-05-09T02:09:45.150Z,102172.79
2024-05-09T02:12:19.801Z,102170.59
2024-05-09T02:14:55.144Z,102168.61
2024-05-09T02:17:27.790Z,102168.85
2024-05-09T02:20:00.970Z,102172.05
2024-05-09T02:22:39.117Z,102171.86
2024-05-09T02:25:13.701Z,102173.29
2024-05-09T02:27:46.491Z,102166.29
2024-05-09T02:30:30.111Z,102169.09
2024-05-09T02:33:14.426Z,102167.75
2024-05-09T02:35:50.244Z,102167.56
2024-05-09T02:38:29.273Z,102165.09
2024-05-09T02:41:03.292Z,102163.60
2024-05-09T02:43:35.720Z,102158.48
2024-05-09T02:46:12.506Z,102156.83
2024-05-09T02:48:44.988Z,102159.28
2024-05-09T02:51:18.495Z,102164.48
2024-05-09T02:53:52.538Z,102161.95
2024-05-09T02:56:25.476Z,102165.57
2024-05-09T02:59:00.299Z,102168.05
2024-05-09T03:01:33.514Z,102171.29
2024-05-09T03:04:08.046Z,102170.00
2024-05-09T03:06:44.367Z,102169.23
2024-05-09T03:09:17.967Z,102165.94
2024-05-09T03:11:51.761Z,102165.73
2024-05-09T03:14:25.786Z,102163.55
2024-05-09T03:17:00.147Z,102163.15
2024-05-09T03:19:33.856Z,102164.64
2024-05-09T03:22:07.093Z,102159.48
2024-05-09T03:24:40.692Z,102163.18
2024-05-09T03:27:22.399Z,102169.01
2024-05-09T03:29:56.043Z,102170.27
2024-05-09T03:32:30.296Z,102172.11
2024-05-09T03:35:04.608Z,102166.09
2024-05-09T03:37:37.421Z,102159.71
2024-05-09T03:40:20.890Z,102158.86
2024-05-09T03:42:56.527Z,102155.67
2024-05-09T03:45:29.956Z,102151.95
2024-05-09T03:48:06.953Z,102152.77
2024-05-09T03:50:41.333Z,102154.70
2024-05-09T03:53:17.582Z,102161.14
2024-05-09T03:55:54.172Z,102158.61
2024-05-09T03:58:30.014Z,102149.09
2024-05-09T04:01:03.343Z,102141.99
2024-05-09T04:03:40.373Z,102140.72
2024-05-09T04:06:20.991Z,102143.69
2024-05-09T04:08:53.689Z,102150.64
2024-05-09T04:11:26.425Z,102158.19
2024-05-09T04:14:00.555Z,102159.74
2024-05-09T04:16:33.864Z,102155.65
2024-05-09T04:19:11.287Z,102155.22
2024-05-09T04:21:44.505Z,102155.84
2024-05-09T04:24:17.025Z,102158.11
2024-05-09T04:26:49.783Z,102156.92
2024-05-09T04:29:23.670Z,102156.40
2024-05-09T04:32:01.670Z,102157.29
2024-05-09T04:34:38.918Z,102156.39
2024-05-09T04:37:12.553Z,102155.08
2024-05-09T04:39:47.057Z,102159.09
2024-05-09T04:42:20.991Z,102160.39
2024-05-09T04:44:58.277Z,102159.36
2024-05-09T04:47:33.315Z,102155.76
2024-05-09T04:50:11.862Z,102156.29
2024-05-09T04:52:47.772Z,102156.77
2024-05-09T04:55:21.245Z,102158.75
2024-05-09T04:57:53.795Z,102158.17
2024-05-09T05:00:35.245Z,102157.45
2024-05-09T05:03:13.858Z,102156.75
2024-05-09T05:05:51.795Z,102153.84
2024-05-09T05:08:26.724Z,102151.21
2024-05-09T05:10:59.568Z,102154.88
2024-05-09T05:13:35.605Z,102153.52
2024-05-09T05:16:11.690Z,102152.68
2024-05-09T05:18:44.903Z,102153.45
2024-05-09T05:21:19.379Z,102146.43
2024-05-09T05:23:55.108Z,102145.07
2024-05-09T05:26:28.788Z,102150.70
2024-05-09T05:29:01.397Z,102146.73
2024-05-09T05:31:36.828Z,102145.36
2024-05-09T05:34:08.581Z,102145.77
2024-05-09T05:36:41.470Z,102144.42
2024-05-09T05:39:15.016Z,102145.75
2024-05-09T05:41:47.818Z,102151.50
2024-05-09T05:44:19.962Z,102150.30
2024-05-09T05:46:51.392Z,102152.61
2024-05-09T05:49:25.941Z,102147.27
2024-05-09T05:52:05.795Z,102142.80
2024-05-09T05:54:41.801Z,102143.04
2024-05-09T05:57:16.532Z,102141.85
2024-05-09T05:59:49.775Z,102138.66
2024-05-09T06:02:25.349Z,102142.36
2024-05-09T06:05:00.359Z,102142.58
2024-05-09T06:07:34.446Z,102142.42
2024-05-09T06:10:17.239Z,102137.62
2024-05-09T06:12:56.038Z,102137.70
2024-05-09T06:15:28.685Z,102140.25
2024-05-09T06:18:11.479Z,102141.45
2024-05-09T06:20:50.193Z,102143.67
2024-05-09T06:23:25.334Z,102143.91
2024-05-09T06:25:59.208Z,102146.36
2024-05-09T06:28:40.562Z,102144.73
2024-05-09T06:31:13.052Z,102145.56
2024-05-09T06:33:45.856Z,102140.38
2024-05-09T06:36:19.942Z,102137.40
2024-05-09T06:38:52.959Z,102135.00
2024-05-09T06:41:25.803Z,102138.48
2024-05-09T06:43:58.567Z,102135.63
2024-05-09T06:46:33.338Z,102124.88
2024-05-09T06:49:08.458Z,102124.32
2024-05-09T06:51:41.838Z,102121.80
2024-05-09T06:54:18.236Z,102115.86
2024-05-09T06:56:52.211Z,102114.16
2024-05-09T06:59:25.758Z,102110.30
2024-05-09T07:02:00.686Z,102106.05
2024-05-09T07:04:33.133Z,102107.78
2024-05-09T07:07:09.203Z,102106.69
2024-05-09T07:09:43.331Z,102109.85
2024-05-09T07:12:18.514Z,102107.21
2024-05-09T07:14:52.135Z,102105.88
2024-05-09T07:17:26.664Z,102103.05
2024-05-09T07:20:01.100Z,102101.11
2024-05-09T07:22:35.372Z,102104.38
2024-05-09T07:25:09.461Z,102107.84
2024-05-09T07:27:41.016Z,102107.14
2024-05-09T07:30:22.925Z,102100.69
2024-05-09T07:33:04.570Z,102097.73
2024-05-09T07:35:37.994Z,102094.89
2024-05-09T07:38:15.374Z,102089.88
2024-05-09T07:40:48.332Z,102089.70
2024-05-09T07:43:24.945Z,102090.04
2024-05-09T07:54:16.223Z,102080.02
2024-05-09T07:56:52.854Z,102077.83
2024-05-09T07:59:26.023Z,102074.88
2024-05-09T08:02:01.901Z,102076.00
2024-05-09T08:04:37.065Z,102073.45
2024-05-09T08:07:10.896Z,102072.71
2024-05-09T08:09:46.156Z,102071.46
2024-05-09T08:12:18.034Z,102068.29
2024-05-09T08:16:45.149Z,102060.73
2024-05-09T08:19:18.720Z,102059.83
2024-05-09T08:21:52.426Z,102058.15
2024-05-09T08:24:25.556Z,102051.26
2024-05-09T08:26:58.881Z,102050.39
2024-05-09T08:29:30.809Z,102052.72
2024-05-09T08:32:03.291Z,102061.52
2024-05-09T08:34:35.663Z,102059.89
2024-05-09T08:37:13.261Z,102059.45
2024-05-09T08:39:52.260Z,102056.83
2024-05-09T08:42:29.052Z,102053.98
2024-05-09T08:45:02.630Z,102057.27
2024-05-09T08:47:35.827Z,102058.85
2024-05-09T08:50:28.547Z,102062.20
2024-05-09T08:53:08.076Z,102058.77
2024-05-09T08:55:43.877Z,102061.21
2024-05-09T08:58:21.203Z,102057.23
2024-05-09T09:00:54.945Z,102056.71
2024-05-09T09:03:31.971Z,102052.60
2024-05-09T09:06:12.207Z,102053.10
2024-05-09T09:08:46.852Z,102051.56
2024-05-09T09:11:20.075Z,102050.98
2024-05-09T09:13:54.254Z,102049.20
2024-05-09T09:16:37.726Z,102051.67
2024-05-09T09:19:11.346Z,102043.29
2024-05-09T09:21:44.397Z,102045.13
2024-05-09T09:24:17.464Z,102042.59
2024-05-09T09:26:49.994Z,102039.85
2024-05-09T09:29:24.063Z,102036.17
2024-05-09T09:32:03.952Z,102035.45
2024-05-09T09:34:37.891Z,102029.07
2024-05-09T09:37:12.798Z,102029.08
2024-05-09T09:39:48.924Z,102025.84
2024-05-09T09:42:23.713Z,102023.17
2024-05-09T09:45:04.834Z,102021.98
2024-05-09T09:47:42.841Z,102018.13
2024-05-09T09:50:24.032Z,102010.45
2024-05-09T09:53:07.936Z,102014.91
2024-05-09T09:55:42.988Z,102014.02
2024-05-09T09:58:18.131Z,102013.94
2024-05-09T10:00:51.627Z,102015.40
2024-05-09T10:03:29.808Z,102016.53
2024-05-09T10:06:04.589Z,102016.61
2024-05-09T10:08:39.004Z,102019.54
2024-05-09T10:11:13.511Z,102015.98
2024-05-09T10:13:53.339Z,102016.15
2024-05-09T10:16:26.482Z,102014.85
2024-05-09T10:18:59.690Z,102015.08
2024-05-09T10:21:32.782Z,102012.80
2024-05-09T10:24:08.107Z,102009.81
2024-05-09T10:26:42.049Z,102008.05
2024-05-09T10:29:19.820Z,102008.44
2024-05-09T10:31:55.390Z,102007.41
2024-05-09T10:34:37.435Z,102007.16
2024-05-09T10:37:12.036Z,102002.91
2024-05-09T10:39:49.255Z,101999.45
2024-05-09T10:42:26.093Z,102003.35
2024-05-09T10:44:58.963Z,102006.30
2024-05-09T10:47:34.343Z,101998.38
2024-05-09T10:50:18.288Z,101998.99
2024-05-09T10:52:58.348Z,101992.91
2024-05-09T10:55:32.544Z,101989.66
2024-05-09T10:58:19.418Z,101986.19
2024-05-09T11:00:53.272Z,101983.42
2024-05-09T11:03:27.126Z,101980.11
2024-05-09T11:05:59.926Z,101979.09
2024-05-09T11:08:35.454Z,101976.73
2024-05-09T11:11:11.380Z,101974.92
2024-05-09T11:13:44.744Z,101970.23
2024-05-09T11:16:22.610Z,101969.55
2024-05-09T11:18:59.901Z,101968.66
2024-05-09T11:21:34.833Z,101966.30
2024-05-09T11:24:11.016Z,101961.79
2024-05-09T11:26:44.943Z,101959.73
2024-05-09T11:29:19.719Z,101959.69
2024-05-09T11:31:53.743Z,101956.64
2024-05-09T11:34:27.452Z,101952.41
2024-05-09T11:37:00.895Z,101952.41
2024-05-09T11:39:38.670Z,101952.43
2024-05-09T11:42:11.753Z,101949.48
2024-05-09T11:44:45.306Z,101945.79
2024-05-09T11:47:21.567Z,101944.11
2024-05-09T11:49:56.250Z,101938.21
2024-05-09T11:52:29.358Z,101938.13
2024-05-09T11:55:02.752Z,101935.99
2024-05-09T11:57:37.275Z,101936.96
2024-05-09T12:00:18.275Z,101938.72
2024-05-09T12:03:01.108Z,101933.52
2024-05-09T12:05:36.301Z,101928.45
2024-05-09T12:08:11.944Z,101927.59
2024-05-09T12:10:44.626Z,101924.48
2024-05-09T12:13:16.965Z,101918.77
2024-05-09T12:15:49.537Z,101916.11
2024-05-09T12:18:23.541Z,101916.08
2024-05-09T12:20:56.553Z,101911.16
2024-05-09T12:23:29.858Z,101915.05
2024-05-09T12:26:04.012Z,101917.58
2024-05-09T12:28:37.585Z,101915.98
2024-05-09T12:31:11.076Z,101912.84
2024-05-09T12:33:45.124Z,101906.17
2024-05-09T12:36:18.972Z,101907.92
2024-05-09T12:38:51.852Z,101905.10
2024-05-09T12:41:27.575Z,101901.65
2024-05-09T12:44:00.868Z,101897.98
2024-05-09T12:46:34.530Z,101895.14
2024-05-09T12:49:09.395Z,101890.87
2024-05-09T12:51:43.900Z,101889.41
2024-05-09T12:54:17.830Z,101892.41
2024-05-09T12:56:50.895Z,101887.83
2024-05-09T12:59:23.772Z,101883.52
2024-05-09T13:02:00.432Z,101882.54
2024-05-09T13:04:34.158Z,101874.20
2024-05-09T13:07:09.655Z,101870.23
2024-05-09T13:09:42.279Z,101869.02
2024-05-09T13:12:15.354Z,101864.90
2024-05-09T13:14:54.478Z,101860.45
2024-05-09T13:17:27.682Z,101858.33
2024-05-09T13:20:01.263Z,101853.81
2024-05-09T13:22:35.587Z,101851.73
2024-05-09T13:25:10.165Z,101846.70
2024-05-09T13:27:43.180Z,101843.30
2024-05-09T13:30:25.830Z,101840.97
2024-05-09T13:33:02.767Z,101835.59
2024-05-09T13:35:36.477Z,101830.40
2024-05-09T13:38:10.143Z,101829.11
2024-05-09T13:40:45.346Z,101828.47
2024-05-09T13:43:18.959Z,101827.76
2024-05-09T13:45:51.805Z,101824.80
2024-05-09T13:48:24.653Z,101821.17
2024-05-09T13:51:00.222Z,101821.05
2024-05-09T13:53:33.174Z,101822.83
2024-05-09T13:56:08.556Z,101817.52
2024-05-09T13:58:44.546Z,101812.52
2024-05-09T14:01:17.463Z,101804.92
2024-05-09T14:03:53.046Z,101807.84
2024-05-09T14:06:26.990Z,101805.46
2024-05-09T14:08:59.277Z,101800.60
2024-05-09T14:11:31.793Z,101799.96
2024-05-09T14:14:06.395Z,101796.88
2024-05-09T14:16:39.446Z,101795.63
2024-05-09T14:19:12.552Z,101796.77
2024-05-09T14:21:45.773Z,101794.56
2024-05-09T14:24:18.048Z,101791.13
2024-05-09T14:26:52.864Z,101786.34
2024-05-09T14:29:27.612Z,101783.51
2024-05-09T14:32:01.449Z,101778.95
2024-05-09T14:34:35.325Z,101776.74
2024-05-09T14:37:09.142Z,101773.42
2024-05-09T14:39:43.788Z,101769.52
2024-05-09T14:42:16.539Z,101769.30
2024-05-09T14:44:49.288Z,101764.67
2024-05-09T14:47:24.168Z,101753.02
2024-05-09T14:49:57.494Z,101751.04
2024-05-09T14:52:31.454Z,101749.70
2024-05-09T14:55:04.152Z,101746.81
2024-05-09T14:57:37.875Z,101743.93
2024-05-09T15:00:21.352Z,101743.77
2024-05-09T15:03:01.051Z,101739.43
2024-05-09T15:05:33.822Z,101734.50
2024-05-09T15:08:12.508Z,101730.48
2024-05-09T15:10:46.105Z,101730.44
2024-05-09T15:13:20.999Z,101725.35
2024-05-09T15:15:56.647Z,101724.04
2024-05-09T15:18:29.559Z,101717.99
2024-05-09T15:21:04.483Z,101718.02
2024-05-09T15:23:39.829Z,101719.23
2024-05-09T15:26:13.747Z,101710.72
2024-05-09T15:28:48.271Z,101705.32
2024-05-09T15:31:21.210Z,101705.67
2024-05-09T15:33:53.101Z,101699.48
2024-05-09T15:36:25.778Z,101700.38
2024-05-09T15:38:59.532Z,101696.90
2024-05-09T15:41:34.320Z,101693.63
2024-05-09T15:44:08.784Z,101692.20
2024-05-09T15:46:42.099Z,101689.55
2024-05-09T15:49:15.822Z,101689.59
2024-05-09T15:51:49.011Z,101687.05
2024-05-09T15:54:22.939Z,101686.88
2024-05-09T15:56:58.973Z,101684.45
2024-05-09T15:59:31.762Z,101681.77
2024-05-09T16:02:11.535Z,101678.75
2024-05-09T16:04:47.549Z,101677.13
2024-05-09T16:07:22.917Z,101676.63
2024-05-09T16:09:56.903Z,101676.52
2024-05-09T16:12:33.171Z,101672.45
2024-05-09T16:15:06.673Z,101670.31
2024-05-09T16:17:38.798Z,101667.65
2024-05-09T16:20:18.323Z,101663.52
2024-05-09T16:22:59.773Z,101663.93
2024-05-09T16:25:34.998Z,101661.77
2024-05-09T16:28:11.190Z,101662.02
2024-05-09T16:30:46.954Z,101661.78
2024-05-09T16:33:23.705Z,101664.10
2024-05-09T16:35:56.653Z,101661.52
2024-05-09T16:38:31.455Z,101663.02
2024-05-09T16:41:03.685Z,101663.64
2024-05-09T16:43:37.828Z,101662.60
2024-05-09T16:46:11.041Z,101661.40
2024-05-09T16:48:45.719Z,101660.92
2024-05-09T16:51:20.778Z,101663.05
2024-05-09T16:53:54.175Z,101664.98
2024-05-09T16:56:28.716Z,101663.11
2024-05-09T16:59:04.118Z,101655.36
2024-05-09T17:01:36.939Z,101657.20
2024-05-09T17:04:09.787Z,101656.65
2024-05-09T17:06:44.901Z,101653.29
2024-05-09T17:09:20.137Z,101657.17
2024-05-09T17:11:54.681Z,101658.14
2024-05-09T17:14:28.715Z,101654.50
2024-05-09T17:17:03.502Z,101656.08
2024-05-09T17:19:42.304Z,101652.10
2024-05-09T17:22:15.326Z,101648.48
2024-05-09T17:24:49.651Z,101648.80
2024-05-09T17:27:29.825Z,101645.98
2024-05-09T17:30:06.046Z,101644.96
2024-05-09T17:32:39.715Z,101642.41
2024-05-09T17:35:13.160Z,101640.36
2024-05-09T17:37:45.856Z,101640.54
2024-05-09T17:40:30.018Z,101642.27
2024-05-09T17:43:06.962Z,101640.73
2024-05-09T17:45:43.332Z,101636.85
2024-05-09T17:48:16.598Z,101638.20
2024-05-09T17:50:51.351Z,101636.24
2024-05-09T17:53:24.190Z,101636.59
2024-05-09T17:55:56.939Z,101638.45
2024-05-09T17:58:28.832Z,101638.51
2024-05-09T18:01:02.911Z,101638.88
2024-05-09T18:03:35.415Z,101640.88
2024-05-09T18:06:09.164Z,101640.10
2024-05-09T18:08:42.686Z,101643.92
2024-05-09T18:11:17.512Z,101645.52
2024-05-09T18:13:50.719Z,101646.24
2024-05-09T18:16:26.508Z,101643.88
2024-05-09T18:19:00.606Z,101645.96
2024-05-09T18:21:33.821Z,101647.45
2024-05-09T18:24:10.070Z,101653.42
2024-05-09T18:26:44.184Z,101653.90
2024-05-09T18:29:21.750Z,101651.52
2024-05-09T18:31:56.354Z,101657.39
2024-05-09T18:34:29.593Z,101661.23
2024-05-09T18:37:04.415Z,101668.86
2024-05-09T18:39:37.629Z,101667.11
2024-05-09T18:42:24.010Z,101666.64
2024-05-09T18:44:55.030Z,101668.92
2024-05-09T18:47:28.287Z,101666.83
2024-05-09T18:50:02.153Z,101669.81
2024-05-09T18:52:35.776Z,101668.89
2024-05-09T18:55:08.715Z,101676.15
2024-05-09T18:57:42.389Z,101675.10
2024-05-09T19:00:30.775Z,101676.48
2024-05-09T19:03:11.074Z,101676.13
2024-05-09T19:05:47.400Z,101677.12
2024-05-09T19:08:21.817Z,101678.77
2024-05-09T19:10:54.894Z,101672.64
2024-05-09T19:13:29.155Z,101677.14
2024-05-09T19:16:02.933Z,101672.79
2024-05-09T19:18:36.721Z,101675.30
2024-05-09T19:21:10.393Z,101667.48
2024-05-09T19:23:47.269Z,101674.00
2024-05-09T19:26:25.213Z,101671.27
2024-05-09T19:28:58.253Z,101677.60
2024-05-09T19:31:29.945Z,101676.05
2024-05-09T19:34:04.354Z,101675.41
2024-05-09T19:36:39.179Z,101677.02
2024-05-09T19:39:11.922Z,101679.20
2024-05-09T19:41:43.958Z,101683.41
2024-05-09T19:44:15.979Z,101685.90
2024-05-09T19:46:49.059Z,101683.94
2024-05-09T19:49:22.359Z,101681.21
2024-05-09T19:51:55.322Z,101683.02
2024-05-09T19:54:27.645Z,101685.27
2024-05-09T19:57:00.508Z,101687.56
2024-05-09T19:59:33.616Z,101687.23
2024-05-09T20:02:09.166Z,101687.10
2024-05-09T20:04:44.847Z,101685.44
2024-05-09T20:07:20.728Z,101684.11
2024-05-09T20:09:55.492Z,101686.70
2024-05-09T20:12:29.316Z,101686.92
2024-05-09T20:15:02.521Z,101690.80
2024-05-09T20:17:35.237Z,101692.14
2024-05-09T20:20:16.754Z,101693.23
2024-05-09T20:22:57.011Z,101691.33
2024-05-09T20:25:29.831Z,101686.33
2024-05-09T20:28:01.923Z,101689.95
2024-05-09T20:30:39.686Z,101689.38
2024-05-09T20:33:14.356Z,101688.92
2024-05-09T20:35:46.722Z,101689.00
2024-05-09T20:38:18.519Z,101690.31
2024-05-09T20:40:51.708Z,101690.09
2024-05-09T20:43:24.148Z,101689.85
2024-05-09T20:45:57.756Z,101689.41
2024-05-09T20:48:30.531Z,101686.11
2024-05-09T20:51:05.200Z,101686.86
2024-05-09T20:53:37.380Z,101683.48
2024-05-09T20:56:11.872Z,101683.39
2024-05-09T20:58:44.920Z,101682.23
2024-05-09T21:01:18.211Z,101680.14
2024-05-09T21:03:52.693Z,101683.48
2024-05-09T21:06:25.515Z,101683.64
2024-05-09T21:08:58.451Z,101680.11
2024-05-09T21:11:31.870Z,101682.86
2024-05-09T21:14:04.794Z,101680.04
2024-05-09T21:16:38.806Z,101681.66
2024-05-09T21:19:12.688Z,101681.34
2024-05-09T21:21:46.015Z,101679.73
2024-05-09T21:24:19.205Z,101679.77
2024-05-09T21:26:51.356Z,101681.38
2024-05-09T21:29:23.950Z,101680.25
2024-05-09T21:31:57.351Z,101681.23
2024-05-09T21:34:30.305Z,101677.89
2024-05-09T21:37:03.178Z,101682.65
2024-05-09T21:39:36.070Z,101678.64
2024-05-09T21:42:11.926Z,101676.70
2024-05-09T21:44:44.328Z,101673.06
2024-05-09T21:47:17.102Z,101672.56
2024-05-09T21:49:49.375Z,101670.73
2024-05-09T21:52:22.710Z,101672.45
2024-05-09T21:54:58.103Z,101677.40
2024-05-09T21:57:30.047Z,101679.37
2024-05-09T22:00:03.267Z,101679.24
2024-05-09T22:02:37.612Z,101680.66
2024-05-09T22:05:13.551Z,101677.44
2024-05-09T22:07:47.452Z,101684.34
2024-05-09T22:10:26.273Z,101706.20
2024-05-09T22:13:05.112Z,101704.79
2024-05-09T22:15:41.380Z,101699.42
2024-05-09T22:18:14.142Z,101706.75
2024-05-09T22:20:47.086Z,101701.86
2024-05-09T22:23:21.620Z,101698.84
2024-05-09T22:25:55.993Z,101694.05
2024-05-09T22:28:28.376Z,101693.39
2024-05-09T22:31:02.593Z,101691.66
2024-05-09T22:33:35.535Z,101693.05
2024-05-09T22:36:09.708Z,101693.67
2024-05-09T22:38:43.880Z,101691.17
2024-05-09T22:41:16.301Z,101688.67
2024-05-09T22:43:51.340Z,101690.37
2024-05-09T22:46:25.942Z,101691.45
2024-05-09T22:48:59.241Z,101690.31
2024-05-09T22:51:33.714Z,101688.31
2024-05-09T22:54:07.594Z,101683.36
2024-05-09T22:56:43.647Z,101688.62
2024-05-09T22:59:17.391Z,101686.98
2024-05-09T23:01:50.450Z,101683.85
2024-05-09T23:04:26.381Z,101681.08
2024-05-09T23:06:58.495Z,101681.52
2024-05-09T23:09:31.797Z,101681.30
2024-05-09T23:12:05.845Z,101679.28
2024-05-09T23:14:39.925Z,101682.41
2024-05-09T23:17:13.557Z,101680.75
2024-05-09T23:19:51.245Z,101674.48
2024-05-09T23:22:25.288Z,101674.06
2024-05-09T23:25:02.157Z,101671.55
2024-05-09T23:27:34.574Z,101666.56
2024-05-09T23:30:12.523Z,101668.83
2024-05-09T23:32:48.180Z,101668.84
2024-05-09T23:35:21.934Z,101667.17
2024-05-09T23:37:55.488Z,101667.25
2024-05-09T23:40:37.779Z,101670.97
2024-05-09T23:43:16.569Z,101671.29
2024-05-09T23:45:50.689Z,101669.48
2024-05-09T23:48:23.934Z,101664.92
2024-05-09T23:50:56.252Z,101666.90
2024-05-09T23:53:29.260Z,101664.27
2024-05-09T23:56:02.451Z,101664.60
2024-05-09T23:58:34.934Z,101662.67
